sensor_id;sensor_type;location;lat;lon;timestamp;P1;durP1;ratioP1;P2;durP2;ratioP2
40637;SDS011;26336;44.696;10.622;2022-10-15T00:02:44;36.08;;;25.55;;
40637;SDS011;26336;44.696;10.622;2022-10-15T00:05:48;42.65;;;29.58;;
40637;SDS011;26336;44.696;10.622;2022-10-15T00:08:52;37.35;;;26.67;;
40637;SDS011;26336;44.696;10.622;2022-10-15T00:11:56;38.15;;;27.52;;
40637;SDS011;26336;44.696;10.622;2022-10-15T00:15:00;39.20;;;27.23;;
40637;SDS011;26336;44.696;10.622;2022-10-15T00:18:04;39.55;;;26.73;;
40637;SDS011;26336;44.696;10.622;2022-10-15T00:21:09;36.80;;;27.02;;
40637;SDS011;26336;44.696;10.622;2022-10-15T00:24:14;43.22;;;28.65;;
40637;SDS011;26336;44.696;10.622;2022-10-15T00:27:18;38.58;;;26.58;;
40637;SDS011;26336;44.696;10.622;2022-10-15T00:30:22;40.83;;;28.27;;
40637;SDS011;26336;44.696;10.622;2022-10-15T00:33:27;42.05;;;27.77;;
40637;SDS011;26336;44.696;10.622;2022-10-15T00:36:32;47.00;;;29.23;;
40637;SDS011;26336;44.696;10.622;2022-10-15T00:39:38;41.92;;;27.55;;
40637;SDS011;26336;44.696;10.622;2022-10-15T00:42:42;41.88;;;27.42;;
40637;SDS011;26336;44.696;10.622;2022-10-15T00:45:46;37.90;;;26.50;;
40637;SDS011;26336;44.696;10.622;2022-10-15T00:48:53;42.20;;;29.30;;
40637;SDS011;26336;44.696;10.622;2022-10-15T00:52:02;39.60;;;27.13;;
40637;SDS011;26336;44.696;10.622;2022-10-15T00:55:16;36.83;;;26.45;;
40637;SDS011;26336;44.696;10.622;2022-10-15T00:58:26;40.40;;;27.52;;
40637;SDS011;26336;44.696;10.622;2022-10-15T01:01:33;36.95;;;26.60;;
40637;SDS011;26336;44.696;10.622;2022-10-15T01:04:38;34.25;;;25.40;;
40637;SDS011;26336;44.696;10.622;2022-10-15T01:07:43;37.08;;;25.73;;
40637;SDS011;26336;44.696;10.622;2022-10-15T01:21:21;41.58;;;28.67;;
40637;SDS011;26336;44.696;10.622;2022-10-15T01:31:41;39.75;;;27.52;;
40637;SDS011;26336;44.696;10.622;2022-10-15T01:34:59;38.90;;;28.58;;
40637;SDS011;26336;44.696;10.622;2022-10-15T01:44:52;38.70;;;27.90;;
40637;SDS011;26336;44.696;10.622;2022-10-15T01:48:25;39.50;;;27.38;;
40637;SDS011;26336;44.696;10.622;2022-10-15T01:51:33;38.40;;;27.02;;
40637;SDS011;26336;44.696;10.622;2022-10-15T01:54:42;42.85;;;28.25;;
40637;SDS011;26336;44.696;10.622;2022-10-15T01:57:50;41.28;;;28.83;;
40637;SDS011;26336;44.696;10.622;2022-10-15T02:00:57;46.63;;;29.73;;
40637;SDS011;26336;44.696;10.622;2022-10-15T02:04:15;40.90;;;29.02;;
40637;SDS011;26336;44.696;10.622;2022-10-15T02:07:37;45.20;;;30.77;;
40637;SDS011;26336;44.696;10.622;2022-10-15T02:11:07;41.60;;;28.55;;
40637;SDS011;26336;44.696;10.622;2022-10-15T02:14:26;43.33;;;29.75;;
40637;SDS011;26336;44.696;10.622;2022-10-15T02:20:50;40.87;;;28.07;;
40637;SDS011;26336;44.696;10.622;2022-10-15T02:24:02;40.35;;;28.40;;
40637;SDS011;26336;44.696;10.622;2022-10-15T02:27:13;49.25;;;28.88;;
40637;SDS011;26336;44.696;10.622;2022-10-15T02:30:18;38.72;;;27.17;;
40637;SDS011;26336;44.696;10.622;2022-10-15T02:33:23;40.90;;;27.55;;
40637;SDS011;26336;44.696;10.622;2022-10-15T02:36:29;39.83;;;28.17;;
40637;SDS011;26336;44.696;10.622;2022-10-15T02:39:33;37.85;;;25.85;;
40637;SDS011;26336;44.696;10.622;2022-10-15T02:42:37;43.58;;;29.08;;
40637;SDS011;26336;44.696;10.622;2022-10-15T02:45:43;42.45;;;29.10;;
40637;SDS011;26336;44.696;10.622;2022-10-15T02:48:47;38.60;;;27.27;;
40637;SDS011;26336;44.696;10.622;2022-10-15T02:51:54;44.80;;;29.15;;
40637;SDS011;26336;44.696;10.622;2022-10-15T02:54:58;44.30;;;28.27;;
40637;SDS011;26336;44.696;10.622;2022-10-15T02:58:03;41.08;;;28.02;;
40637;SDS011;26336;44.696;10.622;2022-10-15T03:01:07;46.08;;;30.00;;
40637;SDS011;26336;44.696;10.622;2022-10-15T03:04:11;38.38;;;28.50;;
40637;SDS011;26336;44.696;10.622;2022-10-15T03:07:16;43.35;;;29.33;;
40637;SDS011;26336;44.696;10.622;2022-10-15T03:10:20;40.83;;;29.10;;
40637;SDS011;26336;44.696;10.622;2022-10-15T03:13:24;42.20;;;29.23;;
40637;SDS011;26336;44.696;10.622;2022-10-15T03:16:29;44.55;;;29.33;;
40637;SDS011;26336;44.696;10.622;2022-10-15T03:19:33;44.28;;;30.30;;
40637;SDS011;26336;44.696;10.622;2022-10-15T03:22:37;43.90;;;28.48;;
40637;SDS011;26336;44.696;10.622;2022-10-15T03:25:42;44.88;;;30.15;;
40637;SDS011;26336;44.696;10.622;2022-10-15T03:28:51;43.83;;;29.85;;
40637;SDS011;26336;44.696;10.622;2022-10-15T03:32:09;44.92;;;29.00;;
40637;SDS011;26336;44.696;10.622;2022-10-15T03:35:13;46.90;;;31.58;;
40637;SDS011;26336;44.696;10.622;2022-10-15T03:38:17;45.22;;;30.40;;
40637;SDS011;26336;44.696;10.622;2022-10-15T03:41:22;44.47;;;33.00;;
40637;SDS011;26336;44.696;10.622;2022-10-15T03:44:26;47.50;;;32.28;;
40637;SDS011;26336;44.696;10.622;2022-10-15T03:47:44;45.55;;;30.38;;
40637;SDS011;26336;44.696;10.622;2022-10-15T03:50:48;48.38;;;33.33;;
40637;SDS011;26336;44.696;10.622;2022-10-15T03:53:52;48.85;;;31.90;;
40637;SDS011;26336;44.696;10.622;2022-10-15T03:56:56;49.67;;;31.83;;
40637;SDS011;26336;44.696;10.622;2022-10-15T04:00:07;47.67;;;30.95;;
40637;SDS011;26336;44.696;10.622;2022-10-15T04:03:21;51.38;;;33.15;;
40637;SDS011;26336;44.696;10.622;2022-10-15T04:06:25;49.75;;;32.78;;
40637;SDS011;26336;44.696;10.622;2022-10-15T04:09:30;49.88;;;30.95;;
40637;SDS011;26336;44.696;10.622;2022-10-15T04:12:54;45.35;;;31.67;;
40637;SDS011;26336;44.696;10.622;2022-10-15T04:15:59;45.42;;;29.55;;
40637;SDS011;26336;44.696;10.622;2022-10-15T04:19:04;43.47;;;30.55;;
40637;SDS011;26336;44.696;10.622;2022-10-15T04:22:08;47.88;;;31.83;;
40637;SDS011;26336;44.696;10.622;2022-10-15T04:25:21;45.85;;;29.80;;
40637;SDS011;26336;44.696;10.622;2022-10-15T04:28:26;47.33;;;31.48;;
40637;SDS011;26336;44.696;10.622;2022-10-15T04:31:30;41.90;;;29.45;;
40637;SDS011;26336;44.696;10.622;2022-10-15T04:34:37;49.03;;;31.58;;
40637;SDS011;26336;44.696;10.622;2022-10-15T04:37:42;45.35;;;30.80;;
40637;SDS011;26336;44.696;10.622;2022-10-15T04:40:46;48.67;;;31.52;;
40637;SDS011;26336;44.696;10.622;2022-10-15T04:43:50;44.90;;;30.60;;
40637;SDS011;26336;44.696;10.622;2022-10-15T04:46:54;41.25;;;29.48;;
40637;SDS011;26336;44.696;10.622;2022-10-15T04:50:17;42.13;;;28.98;;
40637;SDS011;26336;44.696;10.622;2022-10-15T04:53:39;43.57;;;28.97;;
40637;SDS011;26336;44.696;10.622;2022-10-15T04:56:45;42.50;;;29.45;;
40637;SDS011;26336;44.696;10.622;2022-10-15T04:59:49;43.50;;;29.42;;
40637;SDS011;26336;44.696;10.622;2022-10-15T05:03:16;42.78;;;29.88;;
40637;SDS011;26336;44.696;10.622;2022-10-15T05:06:26;42.72;;;29.63;;
40637;SDS011;26336;44.696;10.622;2022-10-15T05:09:35;46.28;;;30.52;;
40637;SDS011;26336;44.696;10.622;2022-10-15T05:12:39;50.65;;;34.75;;
40637;SDS011;26336;44.696;10.622;2022-10-15T05:15:44;49.65;;;33.33;;
40637;SDS011;26336;44.696;10.622;2022-10-15T05:18:48;48.22;;;31.50;;
40637;SDS011;26336;44.696;10.622;2022-10-15T05:21:54;43.95;;;30.27;;
40637;SDS011;26336;44.696;10.622;2022-10-15T05:25:01;44.70;;;30.38;;
40637;SDS011;26336;44.696;10.622;2022-10-15T05:28:08;43.55;;;30.05;;
40637;SDS011;26336;44.696;10.622;2022-10-15T05:31:13;47.40;;;31.17;;
40637;SDS011;26336;44.696;10.622;2022-10-15T05:34:19;44.58;;;30.75;;
40637;SDS011;26336;44.696;10.622;2022-10-15T05:37:37;47.63;;;32.58;;
40637;SDS011;26336;44.696;10.622;2022-10-15T05:40:46;47.10;;;31.02;;
40637;SDS011;26336;44.696;10.622;2022-10-15T05:43:56;47.13;;;30.02;;
40637;SDS011;26336;44.696;10.622;2022-10-15T05:47:04;45.65;;;30.58;;
40637;SDS011;26336;44.696;10.622;2022-10-15T05:50:10;47.22;;;30.83;;
40637;SDS011;26336;44.696;10.622;2022-10-15T05:53:18;45.00;;;30.40;;
40637;SDS011;26336;44.696;10.622;2022-10-15T05:56:24;44.67;;;30.23;;
40637;SDS011;26336;44.696;10.622;2022-10-15T05:59:29;50.20;;;31.58;;
40637;SDS011;26336;44.696;10.622;2022-10-15T06:02:33;49.58;;;31.88;;
40637;SDS011;26336;44.696;10.622;2022-10-15T06:05:37;50.90;;;32.78;;
40637;SDS011;26336;44.696;10.622;2022-10-15T06:08:41;48.15;;;31.17;;
40637;SDS011;26336;44.696;10.622;2022-10-15T06:11:45;48.33;;;30.83;;
40637;SDS011;26336;44.696;10.622;2022-10-15T06:14:55;49.42;;;32.13;;
40637;SDS011;26336;44.696;10.622;2022-10-15T06:17:58;51.78;;;30.95;;
40637;SDS011;26336;44.696;10.622;2022-10-15T06:21:03;50.60;;;32.47;;
40637;SDS011;26336;44.696;10.622;2022-10-15T06:24:08;45.20;;;28.75;;
40637;SDS011;26336;44.696;10.622;2022-10-15T06:27:12;46.85;;;30.33;;
40637;SDS011;26336;44.696;10.622;2022-10-15T06:30:16;43.92;;;28.33;;
40637;SDS011;26336;44.696;10.622;2022-10-15T06:33:20;45.55;;;28.20;;
40637;SDS011;26336;44.696;10.622;2022-10-15T06:36:24;45.58;;;29.15;;
40637;SDS011;26336;44.696;10.622;2022-10-15T06:39:29;41.00;;;27.25;;
40637;SDS011;26336;44.696;10.622;2022-10-15T06:42:33;42.25;;;27.70;;
40637;SDS011;26336;44.696;10.622;2022-10-15T06:45:38;41.50;;;27.92;;
40637;SDS011;26336;44.696;10.622;2022-10-15T06:48:53;47.88;;;29.38;;
40637;SDS011;26336;44.696;10.622;2022-10-15T06:51:58;41.53;;;29.02;;
40637;SDS011;26336;44.696;10.622;2022-10-15T06:55:02;42.10;;;28.40;;
40637;SDS011;26336;44.696;10.622;2022-10-15T06:58:06;43.97;;;29.35;;
40637;SDS011;26336;44.696;10.622;2022-10-15T07:01:11;52.65;;;32.92;;
40637;SDS011;26336;44.696;10.622;2022-10-15T07:04:15;51.03;;;31.15;;
40637;SDS011;26336;44.696;10.622;2022-10-15T07:07:19;55.03;;;33.10;;
40637;SDS011;26336;44.696;10.622;2022-10-15T07:10:23;44.78;;;30.80;;
40637;SDS011;26336;44.696;10.622;2022-10-15T07:13:28;47.30;;;31.52;;
40637;SDS011;26336;44.696;10.622;2022-10-15T07:16:33;43.95;;;28.83;;
40637;SDS011;26336;44.696;10.622;2022-10-15T07:19:39;45.00;;;30.55;;
40637;SDS011;26336;44.696;10.622;2022-10-15T07:22:43;48.47;;;31.10;;
40637;SDS011;26336;44.696;10.622;2022-10-15T07:25:47;48.10;;;31.02;;
40637;SDS011;26336;44.696;10.622;2022-10-15T07:28:51;46.33;;;29.48;;
40637;SDS011;26336;44.696;10.622;2022-10-15T07:31:55;47.88;;;32.05;;
40637;SDS011;26336;44.696;10.622;2022-10-15T07:34:58;50.80;;;31.33;;
40637;SDS011;26336;44.696;10.622;2022-10-15T07:38:04;45.80;;;30.15;;
40637;SDS011;26336;44.696;10.622;2022-10-15T07:41:08;47.75;;;29.67;;
40637;SDS011;26336;44.696;10.622;2022-10-15T07:44:18;47.65;;;32.17;;
40637;SDS011;26336;44.696;10.622;2022-10-15T07:47:22;47.42;;;31.38;;
40637;SDS011;26336;44.696;10.622;2022-10-15T07:50:27;48.55;;;31.95;;
40637;SDS011;26336;44.696;10.622;2022-10-15T07:53:37;57.53;;;35.38;;
40637;SDS011;26336;44.696;10.622;2022-10-15T07:56:41;52.80;;;33.20;;
40637;SDS011;26336;44.696;10.622;2022-10-15T07:59:45;47.63;;;31.77;;
40637;SDS011;26336;44.696;10.622;2022-10-15T08:02:49;45.33;;;32.38;;
40637;SDS011;26336;44.696;10.622;2022-10-15T08:06:00;41.88;;;28.23;;
40637;SDS011;26336;44.696;10.622;2022-10-15T08:09:05;41.55;;;28.05;;
40637;SDS011;26336;44.696;10.622;2022-10-15T08:12:09;44.45;;;30.17;;
40637;SDS011;26336;44.696;10.622;2022-10-15T08:15:13;48.28;;;29.83;;
40637;SDS011;26336;44.696;10.622;2022-10-15T08:18:17;44.53;;;29.98;;
40637;SDS011;26336;44.696;10.622;2022-10-15T08:21:21;42.45;;;28.17;;
40637;SDS011;26336;44.696;10.622;2022-10-15T08:24:25;43.90;;;27.35;;
40637;SDS011;26336;44.696;10.622;2022-10-15T08:27:29;45.20;;;29.02;;
40637;SDS011;26336;44.696;10.622;2022-10-15T08:30:33;37.65;;;27.35;;
40637;SDS011;26336;44.696;10.622;2022-10-15T08:33:42;46.10;;;29.52;;
40637;SDS011;26336;44.696;10.622;2022-10-15T08:36:48;42.42;;;28.25;;
40637;SDS011;26336;44.696;10.622;2022-10-15T08:39:52;40.10;;;27.27;;
40637;SDS011;26336;44.696;10.622;2022-10-15T08:42:56;40.45;;;27.95;;
40637;SDS011;26336;44.696;10.622;2022-10-15T08:46:00;42.28;;;26.92;;
40637;SDS011;26336;44.696;10.622;2022-10-15T08:49:20;41.13;;;25.55;;
40637;SDS011;26336;44.696;10.622;2022-10-15T08:52:45;34.70;;;24.40;;
40637;SDS011;26336;44.696;10.622;2022-10-15T08:55:52;34.85;;;23.63;;
40637;SDS011;26336;44.696;10.622;2022-10-15T09:02:16;35.35;;;24.13;;
40637;SDS011;26336;44.696;10.622;2022-10-15T09:15:23;41.03;;;25.92;;
40637;SDS011;26336;44.696;10.622;2022-10-15T09:18:30;37.00;;;26.20;;
40637;SDS011;26336;44.696;10.622;2022-10-15T09:21:37;38.55;;;27.58;;
40637;SDS011;26336;44.696;10.622;2022-10-15T09:24:41;46.80;;;30.77;;
40637;SDS011;26336;44.696;10.622;2022-10-15T09:27:45;46.05;;;28.80;;
40637;SDS011;26336;44.696;10.622;2022-10-15T09:30:52;43.35;;;30.88;;
40637;SDS011;26336;44.696;10.622;2022-10-15T09:34:09;45.47;;;30.75;;
40637;SDS011;26336;44.696;10.622;2022-10-15T09:37:37;48.47;;;32.13;;
40637;SDS011;26336;44.696;10.622;2022-10-15T09:41:08;46.17;;;30.63;;
40637;SDS011;26336;44.696;10.622;2022-10-15T09:44:30;43.67;;;28.65;;
40637;SDS011;26336;44.696;10.622;2022-10-15T09:48:04;39.00;;;27.58;;
40637;SDS011;26336;44.696;10.622;2022-10-15T09:58:39;51.05;;;32.20;;
40637;SDS011;26336;44.696;10.622;2022-10-15T10:02:01;36.08;;;25.20;;
40637;SDS011;26336;44.696;10.622;2022-10-15T10:05:26;36.50;;;24.85;;
40637;SDS011;26336;44.696;10.622;2022-10-15T10:08:37;39.92;;;25.90;;
40637;SDS011;26336;44.696;10.622;2022-10-15T10:11:58;32.53;;;22.58;;
40637;SDS011;26336;44.696;10.622;2022-10-15T10:15:29;32.70;;;24.55;;
40637;SDS011;26336;44.696;10.622;2022-10-15T10:18:33;31.90;;;22.55;;
40637;SDS011;26336;44.696;10.622;2022-10-15T10:21:40;29.35;;;19.67;;
40637;SDS011;26336;44.696;10.622;2022-10-15T10:24:46;25.92;;;17.83;;
40637;SDS011;26336;44.696;10.622;2022-10-15T10:27:51;27.75;;;19.80;;
40637;SDS011;26336;44.696;10.622;2022-10-15T10:34:00;32.00;;;21.17;;
40637;SDS011;26336;44.696;10.622;2022-10-15T10:37:05;26.52;;;17.77;;
40637;SDS011;26336;44.696;10.622;2022-10-15T10:40:29;25.55;;;16.80;;
40637;SDS011;26336;44.696;10.622;2022-10-15T10:43:52;22.90;;;16.55;;
40637;SDS011;26336;44.696;10.622;2022-10-15T10:50:10;25.52;;;18.88;;
40637;SDS011;26336;44.696;10.622;2022-10-15T10:56:50;27.95;;;21.55;;
40637;SDS011;26336;44.696;10.622;2022-10-15T10:59:56;31.20;;;23.05;;
40637;SDS011;26336;44.696;10.622;2022-10-15T11:03:00;33.50;;;22.48;;
40637;SDS011;26336;44.696;10.622;2022-10-15T11:12:55;36.33;;;23.38;;
40637;SDS011;26336;44.696;10.622;2022-10-15T11:16:23;32.80;;;21.25;;
40637;SDS011;26336;44.696;10.622;2022-10-15T11:19:46;36.60;;;22.27;;
40637;SDS011;26336;44.696;10.622;2022-10-15T11:23:30;27.08;;;20.15;;
40637;SDS011;26336;44.696;10.622;2022-10-15T11:44:02;31.50;;;21.35;;
40637;SDS011;26336;44.696;10.622;2022-10-15T11:47:27;29.60;;;22.10;;
40637;SDS011;26336;44.696;10.622;2022-10-15T11:50:48;35.08;;;23.88;;
40637;SDS011;26336;44.696;10.622;2022-10-15T11:57:12;32.28;;;21.73;;
40637;SDS011;26336;44.696;10.622;2022-10-15T12:03:41;25.40;;;18.17;;
40637;SDS011;26336;44.696;10.622;2022-10-15T12:06:56;26.42;;;18.65;;
40637;SDS011;26336;44.696;10.622;2022-10-15T12:19:48;30.85;;;17.05;;
40637;SDS011;26336;44.696;10.622;2022-10-15T12:22:58;22.65;;;17.13;;
40637;SDS011;26336;44.696;10.622;2022-10-15T12:26:37;26.13;;;17.02;;
40637;SDS011;26336;44.696;10.622;2022-10-15T12:29:36;27.00;;;18.75;;
40637;SDS011;26336;44.696;10.622;2022-10-15T12:32:41;18.50;;;13.77;;
40637;SDS011;26336;44.696;10.622;2022-10-15T12:35:52;26.95;;;17.92;;
40637;SDS011;26336;44.696;10.622;2022-10-15T12:42:21;21.13;;;13.93;;
40637;SDS011;26336;44.696;10.622;2022-10-15T12:45:34;25.83;;;16.27;;
40637;SDS011;26336;44.696;10.622;2022-10-15T12:48:44;23.65;;;16.58;;
40637;SDS011;26336;44.696;10.622;2022-10-15T12:51:49;21.38;;;15.15;;
40637;SDS011;26336;44.696;10.622;2022-10-15T12:54:54;21.52;;;14.73;;
40637;SDS011;26336;44.696;10.622;2022-10-15T12:58:30;22.98;;;15.02;;
40637;SDS011;26336;44.696;10.622;2022-10-15T13:04:46;22.65;;;16.52;;
40637;SDS011;26336;44.696;10.622;2022-10-15T13:07:50;21.90;;;16.48;;
40637;SDS011;26336;44.696;10.622;2022-10-15T13:10:56;22.73;;;15.85;;
40637;SDS011;26336;44.696;10.622;2022-10-15T13:14:49;21.10;;;13.90;;
40637;SDS011;26336;44.696;10.622;2022-10-15T13:17:25;20.05;;;13.02;;
40637;SDS011;26336;44.696;10.622;2022-10-15T13:20:39;33.55;;;22.17;;
40637;SDS011;26336;44.696;10.622;2022-10-15T13:23:46;22.13;;;15.05;;
40637;SDS011;26336;44.696;10.622;2022-10-15T13:26:53;25.77;;;15.07;;
40637;SDS011;26336;44.696;10.622;2022-10-15T13:33:14;22.83;;;15.20;;
40637;SDS011;26336;44.696;10.622;2022-10-15T13:36:22;21.40;;;14.85;;
40637;SDS011;26336;44.696;10.622;2022-10-15T13:39:36;23.80;;;16.27;;
40637;SDS011;26336;44.696;10.622;2022-10-15T13:42:56;24.75;;;17.13;;
40637;SDS011;26336;44.696;10.622;2022-10-15T13:46:04;28.70;;;17.35;;
40637;SDS011;26336;44.696;10.622;2022-10-15T13:49:10;20.50;;;14.88;;
40637;SDS011;26336;44.696;10.622;2022-10-15T13:52:15;23.55;;;18.02;;
40637;SDS011;26336;44.696;10.622;2022-10-15T13:55:21;26.33;;;17.05;;
40637;SDS011;26336;44.696;10.622;2022-10-15T14:01:31;26.60;;;18.30;;
40637;SDS011;26336;44.696;10.622;2022-10-15T14:04:37;27.48;;;19.20;;
40637;SDS011;26336;44.696;10.622;2022-10-15T14:07:41;32.40;;;20.85;;
40637;SDS011;26336;44.696;10.622;2022-10-15T14:10:45;27.08;;;19.05;;
40637;SDS011;26336;44.696;10.622;2022-10-15T14:13:52;19.80;;;15.50;;
40637;SDS011;26336;44.696;10.622;2022-10-15T14:16:58;21.33;;;14.07;;
40637;SDS011;26336;44.696;10.622;2022-10-15T14:20:09;21.55;;;14.45;;
40637;SDS011;26336;44.696;10.622;2022-10-15T14:23:22;22.02;;;15.15;;
40637;SDS011;26336;44.696;10.622;2022-10-15T14:26:28;21.70;;;14.32;;
40637;SDS011;26336;44.696;10.622;2022-10-15T14:29:40;28.15;;;16.00;;
40637;SDS011;26336;44.696;10.622;2022-10-15T14:32:48;25.95;;;18.52;;
40637;SDS011;26336;44.696;10.622;2022-10-15T14:39:33;27.17;;;18.40;;
40637;SDS011;26336;44.696;10.622;2022-10-15T14:42:46;26.63;;;17.70;;
40637;SDS011;26336;44.696;10.622;2022-10-15T14:48:54;26.23;;;17.17;;
40637;SDS011;26336;44.696;10.622;2022-10-15T14:52:10;25.42;;;16.88;;
40637;SDS011;26336;44.696;10.622;2022-10-15T14:58:26;21.58;;;14.55;;
40637;SDS011;26336;44.696;10.622;2022-10-15T15:01:32;18.02;;;11.98;;
40637;SDS011;26336;44.696;10.622;2022-10-15T15:04:39;22.25;;;13.20;;
40637;SDS011;26336;44.696;10.622;2022-10-15T15:07:45;19.85;;;13.50;;
40637;SDS011;26336;44.696;10.622;2022-10-15T15:10:55;19.85;;;12.95;;
40637;SDS011;26336;44.696;10.622;2022-10-15T15:14:02;19.52;;;14.45;;
40637;SDS011;26336;44.696;10.622;2022-10-15T15:17:08;20.23;;;13.85;;
40637;SDS011;26336;44.696;10.622;2022-10-15T15:20:18;23.05;;;15.63;;
40637;SDS011;26336;44.696;10.622;2022-10-15T15:23:24;20.65;;;15.55;;
40637;SDS011;26336;44.696;10.622;2022-10-15T15:26:29;22.17;;;15.60;;
40637;SDS011;26336;44.696;10.622;2022-10-15T15:29:33;20.50;;;15.48;;
40637;SDS011;26336;44.696;10.622;2022-10-15T15:32:37;26.67;;;16.00;;
40637;SDS011;26336;44.696;10.622;2022-10-15T15:35:46;22.70;;;16.17;;
40637;SDS011;26336;44.696;10.622;2022-10-15T15:39:11;24.13;;;15.95;;
40637;SDS011;26336;44.696;10.622;2022-10-15T15:42:16;23.23;;;15.10;;
40637;SDS011;26336;44.696;10.622;2022-10-15T15:45:22;23.42;;;15.38;;
40637;SDS011;26336;44.696;10.622;2022-10-15T15:48:28;23.08;;;17.27;;
40637;SDS011;26336;44.696;10.622;2022-10-15T15:51:32;21.33;;;15.93;;
40637;SDS011;26336;44.696;10.622;2022-10-15T15:54:37;23.58;;;15.93;;
40637;SDS011;26336;44.696;10.622;2022-10-15T15:57:41;22.40;;;14.98;;
40637;SDS011;26336;44.696;10.622;2022-10-15T16:00:45;24.23;;;17.15;;
40637;SDS011;26336;44.696;10.622;2022-10-15T16:03:49;25.60;;;19.02;;
40637;SDS011;26336;44.696;10.622;2022-10-15T16:06:53;21.95;;;13.98;;
40637;SDS011;26336;44.696;10.622;2022-10-15T16:09:57;26.58;;;18.27;;
40637;SDS011;26336;44.696;10.622;2022-10-15T16:13:01;27.25;;;16.38;;
40637;SDS011;26336;44.696;10.622;2022-10-15T16:16:05;21.25;;;14.23;;
40637;SDS011;26336;44.696;10.622;2022-10-15T16:19:09;20.70;;;14.43;;
40637;SDS011;26336;44.696;10.622;2022-10-15T16:22:14;19.35;;;13.85;;
40637;SDS011;26336;44.696;10.622;2022-10-15T16:25:19;19.88;;;14.77;;
40637;SDS011;26336;44.696;10.622;2022-10-15T16:28:23;27.08;;;17.00;;
40637;SDS011;26336;44.696;10.622;2022-10-15T16:31:27;21.80;;;14.57;;
40637;SDS011;26336;44.696;10.622;2022-10-15T16:34:32;22.77;;;14.52;;
40637;SDS011;26336;44.696;10.622;2022-10-15T16:37:36;22.73;;;14.45;;
40637;SDS011;26336;44.696;10.622;2022-10-15T16:40:40;21.45;;;15.52;;
40637;SDS011;26336;44.696;10.622;2022-10-15T16:43:48;18.30;;;14.00;;
40637;SDS011;26336;44.696;10.622;2022-10-15T16:46:52;23.60;;;15.20;;
40637;SDS011;26336;44.696;10.622;2022-10-15T16:49:56;24.65;;;14.48;;
40637;SDS011;26336;44.696;10.622;2022-10-15T16:53:00;25.15;;;15.63;;
40637;SDS011;26336;44.696;10.622;2022-10-15T16:56:16;21.35;;;14.55;;
40637;SDS011;26336;44.696;10.622;2022-10-15T16:59:20;21.25;;;14.70;;
40637;SDS011;26336;44.696;10.622;2022-10-15T17:02:24;22.75;;;14.73;;
40637;SDS011;26336;44.696;10.622;2022-10-15T17:05:29;18.48;;;12.90;;
40637;SDS011;26336;44.696;10.622;2022-10-15T17:08:37;20.60;;;13.50;;
40637;SDS011;26336;44.696;10.622;2022-10-15T17:11:46;18.00;;;13.63;;
40637;SDS011;26336;44.696;10.622;2022-10-15T17:14:53;19.60;;;13.27;;
40637;SDS011;26336;44.696;10.622;2022-10-15T17:17:57;19.75;;;12.63;;
40637;SDS011;26336;44.696;10.622;2022-10-15T17:21:02;17.98;;;13.88;;
40637;SDS011;26336;44.696;10.622;2022-10-15T17:24:06;21.27;;;14.23;;
40637;SDS011;26336;44.696;10.622;2022-10-15T17:27:13;18.60;;;12.80;;
40637;SDS011;26336;44.696;10.622;2022-10-15T17:30:17;21.08;;;13.50;;
40637;SDS011;26336;44.696;10.622;2022-10-15T17:33:21;22.65;;;13.55;;
40637;SDS011;26336;44.696;10.622;2022-10-15T17:36:25;18.83;;;14.30;;
40637;SDS011;26336;44.696;10.622;2022-10-15T17:39:30;23.25;;;15.70;;
40637;SDS011;26336;44.696;10.622;2022-10-15T17:42:34;50.30;;;36.25;;
40637;SDS011;26336;44.696;10.622;2022-10-15T17:45:39;47.80;;;34.28;;
40637;SDS011;26336;44.696;10.622;2022-10-15T17:48:43;39.85;;;26.75;;
40637;SDS011;26336;44.696;10.622;2022-10-15T17:51:47;39.83;;;25.83;;
40637;SDS011;26336;44.696;10.622;2022-10-15T17:54:52;36.22;;;26.00;;
40637;SDS011;26336;44.696;10.622;2022-10-15T17:57:55;32.65;;;24.20;;
40637;SDS011;26336;44.696;10.622;2022-10-15T18:01:00;30.60;;;24.13;;
40637;SDS011;26336;44.696;10.622;2022-10-15T18:04:04;29.83;;;20.17;;
40637;SDS011;26336;44.696;10.622;2022-10-15T18:07:09;28.98;;;19.67;;
40637;SDS011;26336;44.696;10.622;2022-10-15T18:10:13;27.30;;;20.95;;
40637;SDS011;26336;44.696;10.622;2022-10-15T18:13:17;26.90;;;20.42;;
40637;SDS011;26336;44.696;10.622;2022-10-15T18:16:22;29.77;;;21.25;;
40637;SDS011;26336;44.696;10.622;2022-10-15T18:19:27;26.88;;;19.08;;
40637;SDS011;26336;44.696;10.622;2022-10-15T18:22:31;31.40;;;24.67;;
40637;SDS011;26336;44.696;10.622;2022-10-15T18:25:36;28.65;;;21.15;;
40637;SDS011;26336;44.696;10.622;2022-10-15T18:28:40;29.42;;;20.38;;
40637;SDS011;26336;44.696;10.622;2022-10-15T18:31:45;29.58;;;20.02;;
40637;SDS011;26336;44.696;10.622;2022-10-15T18:34:49;28.65;;;21.67;;
40637;SDS011;26336;44.696;10.622;2022-10-15T18:37:53;32.42;;;23.52;;
40637;SDS011;26336;44.696;10.622;2022-10-15T18:40:57;36.33;;;22.65;;
40637;SDS011;26336;44.696;10.622;2022-10-15T18:44:02;32.10;;;22.58;;
40637;SDS011;26336;44.696;10.622;2022-10-15T18:47:08;33.35;;;22.38;;
40637;SDS011;26336;44.696;10.622;2022-10-15T18:50:19;29.80;;;23.83;;
40637;SDS011;26336;44.696;10.622;2022-10-15T18:53:24;35.20;;;22.80;;
40637;SDS011;26336;44.696;10.622;2022-10-15T18:56:31;28.58;;;20.13;;
40637;SDS011;26336;44.696;10.622;2022-10-15T18:59:36;31.40;;;21.50;;
40637;SDS011;26336;44.696;10.622;2022-10-15T19:02:40;27.27;;;20.67;;
40637;SDS011;26336;44.696;10.622;2022-10-15T19:05:44;30.55;;;21.02;;
40637;SDS011;26336;44.696;10.622;2022-10-15T19:08:50;29.02;;;20.45;;
40637;SDS011;26336;44.696;10.622;2022-10-15T19:11:55;29.17;;;20.30;;
40637;SDS011;26336;44.696;10.622;2022-10-15T19:14:59;31.25;;;20.00;;
40637;SDS011;26336;44.696;10.622;2022-10-15T19:18:03;30.52;;;21.48;;
40637;SDS011;26336;44.696;10.622;2022-10-15T19:21:13;30.17;;;21.00;;
40637;SDS011;26336;44.696;10.622;2022-10-15T19:24:18;27.77;;;21.08;;
40637;SDS011;26336;44.696;10.622;2022-10-15T19:27:24;30.02;;;21.08;;
40637;SDS011;26336;44.696;10.622;2022-10-15T19:30:29;31.25;;;21.17;;
40637;SDS011;26336;44.696;10.622;2022-10-15T19:33:34;30.30;;;21.90;;
40637;SDS011;26336;44.696;10.622;2022-10-15T19:36:43;32.35;;;20.95;;
40637;SDS011;26336;44.696;10.622;2022-10-15T19:39:49;28.20;;;21.17;;
40637;SDS011;26336;44.696;10.622;2022-10-15T19:42:52;29.83;;;20.80;;
40637;SDS011;26336;44.696;10.622;2022-10-15T19:46:00;29.67;;;21.65;;
40637;SDS011;26336;44.696;10.622;2022-10-15T19:49:06;37.05;;;20.42;;
40637;SDS011;26336;44.696;10.622;2022-10-15T19:52:13;32.83;;;21.52;;
40637;SDS011;26336;44.696;10.622;2022-10-15T19:55:19;28.95;;;21.92;;
40637;SDS011;26336;44.696;10.622;2022-10-15T19:58:25;26.40;;;19.77;;
40637;SDS011;26336;44.696;10.622;2022-10-15T20:01:29;31.35;;;21.13;;
40637;SDS011;26336;44.696;10.622;2022-10-15T20:04:34;30.27;;;20.27;;